sensor_id;sensor_type;location;lat;lon;timestamp;temperature;humidity
3504;DHT22;1766;53.490;10.174;2023-03-02T00:00:00;9.90;41.90
3504;DHT22;1766;53.490;10.174;2023-03-02T00:02:03;9.90;41.90
3504;DHT22;1766;53.490;10.174;2023-03-02T00:04:11;9.80;42.00
3504;DHT22;1766;53.490;10.174;2023-03-02T00:06:15;9.80;41.90
3504;DHT22;1766;53.490;10.174;2023-03-02T00:08:18;9.80;41.80
3504;DHT22;1766;53.490;10.174;2023-03-02T00:10:20;9.70;41.80
3504;DHT22;1766;53.490;10.174;2023-03-02T00:12:28;9.80;41.80
3504;DHT22;1766;53.490;10.174;2023-03-02T00:14:31;9.90;42.00
3504;DHT22;1766;53.490;10.174;2023-03-02T00:16:33;9.90;42.00
3504;DHT22;1766;53.490;10.174;2023-03-02T00:18:35;9.90;41.90
3504;DHT22;1766;53.490;10.174;2023-03-02T00:20:36;9.90;41.90
3504;DHT22;1766;53.490;10.174;2023-03-02T00:22:40;9.90;42.00
3504;DHT22;1766;53.490;10.174;2023-03-02T00:24:42;9.90;42.00
3504;DHT22;1766;53.490;10.174;2023-03-02T00:26:44;9.90;42.00
3504;DHT22;1766;53.490;10.174;2023-03-02T00:28:47;9.80;41.90
3504;DHT22;1766;53.490;10.174;2023-03-02T00:30:49;9.80;42.10
3504;DHT22;1766;53.490;10.174;2023-03-02T00:32:51;9.80;42.10
3504;DHT22;1766;53.490;10.174;2023-03-02T00:34:52;9.70;42.00
3504;DHT22;1766;53.490;10.174;2023-03-02T00:36:54;9.70;42.10
3504;DHT22;1766;53.490;10.174;2023-03-02T00:38:56;9.80;42.30
3504;DHT22;1766;53.490;10.174;2023-03-02T00:40:58;9.60;42.10
3504;DHT22;1766;53.490;10.174;2023-03-02T00:42:59;9.70;42.00
3504;DHT22;1766;53.490;10.174;2023-03-02T00:45:03;9.70;42.10
3504;DHT22;1766;53.490;10.174;2023-03-02T00:47:06;9.60;42.20
3504;DHT22;1766;53.490;10.174;2023-03-02T00:49:07;9.60;42.00
3504;DHT22;1766;53.490;10.174;2023-03-02T00:51:09;9.60;42.10
3504;DHT22;1766;53.490;10.174;2023-03-02T00:53:11;9.60;42.20
3504;DHT22;1766;53.490;10.174;2023-03-02T00:55:13;9.60;42.20
3504;DHT22;1766;53.490;10.174;2023-03-02T00:57:19;9.60;42.10
3504;DHT22;1766;53.490;10.174;2023-03-02T00:59:21;9.60;42.20
3504;DHT22;1766;53.490;10.174;2023-03-02T01:01:31;9.60;42.20
3504;DHT22;1766;53.490;10.174;2023-03-02T01:03:33;9.50;42.10
3504;DHT22;1766;53.490;10.174;2023-03-02T01:05:35;9.60;42.30
3504;DHT22;1766;53.490;10.174;2023-03-02T01:07:37;9.40;42.10
3504;DHT22;1766;53.490;10.174;2023-03-02T01:09:40;9.50;42.20
3504;DHT22;1766;53.490;10.174;2023-03-02T01:11:43;9.50;42.30
3504;DHT22;1766;53.490;10.174;2023-03-02T01:13:45;9.50;42.20
3504;DHT22;1766;53.490;10.174;2023-03-02T01:15:48;9.60;42.40
3504;DHT22;1766;53.490;10.174;2023-03-02T01:17:51;9.50;42.70
3504;DHT22;1766;53.490;10.174;2023-03-02T01:19:53;9.50;42.10
3504;DHT22;1766;53.490;10.174;2023-03-02T01:21:55;9.50;42.20
3504;DHT22;1766;53.490;10.174;2023-03-02T01:23:57;9.40;42.10
3504;DHT22;1766;53.490;10.174;2023-03-02T01:25:59;9.40;42.20
3504;DHT22;1766;53.490;10.174;2023-03-02T01:28:01;9.40;42.20
3504;DHT22;1766;53.490;10.174;2023-03-02T01:30:04;9.40;42.30
3504;DHT22;1766;53.490;10.174;2023-03-02T01:32:07;9.40;42.50
3504;DHT22;1766;53.490;10.174;2023-03-02T01:34:10;9.40;42.60
3504;DHT22;1766;53.490;10.174;2023-03-02T01:36:12;9.30;42.40
3504;DHT22;1766;53.490;10.174;2023-03-02T01:38:14;9.30;42.50
3504;DHT22;1766;53.490;10.174;2023-03-02T01:40:15;9.30;42.50
3504;DHT22;1766;53.490;10.174;2023-03-02T01:42:18;9.30;42.50
3504;DHT22;1766;53.490;10.174;2023-03-02T01:44:35;9.40;42.70
3504;DHT22;1766;53.490;10.174;2023-03-02T01:46:39;9.20;42.70
3504;DHT22;1766;53.490;10.174;2023-03-02T01:48:46;9.30;42.60
3504;DHT22;1766;53.490;10.174;2023-03-02T01:50:51;9.30;42.70
3504;DHT22;1766;53.490;10.174;2023-03-02T01:52:54;9.30;42.60
3504;DHT22;1766;53.490;10.174;2023-03-02T01:54:58;9.30;42.50
3504;DHT22;1766;53.490;10.174;2023-03-02T01:57:03;9.30;42.60
3504;DHT22;1766;53.490;10.174;2023-03-02T01:59:10;9.40;42.70
3504;DHT22;1766;53.490;10.174;2023-03-02T02:01:13;9.20;42.50
3504;DHT22;1766;53.490;10.174;2023-03-02T02:03:18;9.30;42.50
3504;DHT22;1766;53.490;10.174;2023-03-02T02:05:23;9.30;42.60
3504;DHT22;1766;53.490;10.174;2023-03-02T02:07:27;9.30;42.60
3504;DHT22;1766;53.490;10.174;2023-03-02T02:09:32;9.30;42.50
3504;DHT22;1766;53.490;10.174;2023-03-02T02:11:36;9.30;42.60
3504;DHT22;1766;53.490;10.174;2023-03-02T02:13:38;9.30;42.50
3504;DHT22;1766;53.490;10.174;2023-03-02T02:15:40;9.30;42.50
3504;DHT22;1766;53.490;10.174;2023-03-02T02:17:42;9.30;42.40
3504;DHT22;1766;53.490;10.174;2023-03-02T02:19:53;9.30;42.40
3504;DHT22;1766;53.490;10.174;2023-03-02T02:22:00;9.30;42.50
3504;DHT22;1766;53.490;10.174;2023-03-02T02:24:08;9.40;42.50
3504;DHT22;1766;53.490;10.174;2023-03-02T02:26:16;9.20;42.40
3504;DHT22;1766;53.490;10.174;2023-03-02T02:28:24;9.40;42.50
3504;DHT22;1766;53.490;10.174;2023-03-02T02:30:28;9.40;42.50
3504;DHT22;1766;53.490;10.174;2023-03-02T02:32:34;9.40;42.30
3504;DHT22;1766;53.490;10.174;2023-03-02T02:34:40;9.30;42.40
3504;DHT22;1766;53.490;10.174;2023-03-02T02:36:46;9.40;42.50
3504;DHT22;1766;53.490;10.174;2023-03-02T02:38:52;9.40;42.50
3504;DHT22;1766;53.490;10.174;2023-03-02T02:40:57;9.30;42.40
3504;DHT22;1766;53.490;10.174;2023-03-02T02:43:02;9.30;42.40
3504;DHT22;1766;53.490;10.174;2023-03-02T02:45:06;9.30;42.30
3504;DHT22;1766;53.490;10.174;2023-03-02T02:47:20;9.10;42.20
3504;DHT22;1766;53.490;10.174;2023-03-02T02:49:29;9.10;42.30
3504;DHT22;1766;53.490;10.174;2023-03-02T02:51:33;9.10;42.50
3504;DHT22;1766;53.490;10.174;2023-03-02T02:53:42;9.20;42.40
3504;DHT22;1766;53.490;10.174;2023-03-02T02:55:48;9.10;42.50
3504;DHT22;1766;53.490;10.174;2023-03-02T02:57:54;9.10;42.50
3504;DHT22;1766;53.490;10.174;2023-03-02T02:59:59;9.10;42.50
3504;DHT22;1766;53.490;10.174;2023-03-02T03:02:17;9.10;42.40
3504;DHT22;1766;53.490;10.174;2023-03-02T03:04:24;9.10;42.40
3504;DHT22;1766;53.490;10.174;2023-03-02T03:06:30;9.10;42.50
3504;DHT22;1766;53.490;10.174;2023-03-02T03:08:49;9.10;42.50
3504;DHT22;1766;53.490;10.174;2023-03-02T03:10:53;9.10;42.50
3504;DHT22;1766;53.490;10.174;2023-03-02T03:12:55;9.00;42.30
3504;DHT22;1766;53.490;10.174;2023-03-02T03:14:59;9.00;42.40
3504;DHT22;1766;53.490;10.174;2023-03-02T03:17:02;9.00;42.40
3504;DHT22;1766;53.490;10.174;2023-03-02T03:19:15;8.90;42.20
3504;DHT22;1766;53.490;10.174;2023-03-02T03:21:20;8.90;42.50
3504;DHT22;1766;53.490;10.174;2023-03-02T03:23:21;8.90;42.40
3504;DHT22;1766;53.490;10.174;2023-03-02T03:25:25;8.90;42.40
3504;DHT22;1766;53.490;10.174;2023-03-02T03:27:27;8.90;42.50
3504;DHT22;1766;53.490;10.174;2023-03-02T03:29:29;8.90;42.50
3504;DHT22;1766;53.490;10.174;2023-03-02T03:31:33;8.90;42.60
3504;DHT22;1766;53.490;10.174;2023-03-02T03:33:35;8.90;42.50
3504;DHT22;1766;53.490;10.174;2023-03-02T03:35:37;8.80;42.40
3504;DHT22;1766;53.490;10.174;2023-03-02T03:37:40;8.90;42.60
3504;DHT22;1766;53.490;10.174;2023-03-02T03:39:42;8.90;42.60
3504;DHT22;1766;53.490;10.174;2023-03-02T03:41:45;8.90;42.50
3504;DHT22;1766;53.490;10.174;2023-03-02T03:43:46;8.90;42.50
3504;DHT22;1766;53.490;10.174;2023-03-02T03:45:48;8.90;42.40
3504;DHT22;1766;53.490;10.174;2023-03-02T03:47:55;8.90;42.50
3504;DHT22;1766;53.490;10.174;2023-03-02T03:49:57;8.90;42.50
3504;DHT22;1766;53.490;10.174;2023-03-02T03:51:58;8.80;42.40
3504;DHT22;1766;53.490;10.174;2023-03-02T03:54:00;8.80;42.40
3504;DHT22;1766;53.490;10.174;2023-03-02T03:56:03;8.80;42.50
3504;DHT22;1766;53.490;10.174;2023-03-02T03:58:05;8.90;42.70
3504;DHT22;1766;53.490;10.174;2023-03-02T04:00:09;8.90;42.70
3504;DHT22;1766;53.490;10.174;2023-03-02T04:02:14;8.90;42.60
3504;DHT22;1766;53.490;10.174;2023-03-02T04:04:20;8.90;42.60
3504;DHT22;1766;53.490;10.174;2023-03-02T04:06:23;8.90;42.70
3504;DHT22;1766;53.490;10.174;2023-03-02T04:08:25;8.90;42.60
3504;DHT22;1766;53.490;10.174;2023-03-02T04:10:27;8.90;42.50
3504;DHT22;1766;53.490;10.174;2023-03-02T04:12:30;8.90;42.70
3504;DHT22;1766;53.490;10.174;2023-03-02T04:14:32;8.90;42.70
3504;DHT22;1766;53.490;10.174;2023-03-02T04:16:35;8.80;42.60
3504;DHT22;1766;53.490;10.174;2023-03-02T04:18:37;8.90;42.60
3504;DHT22;1766;53.490;10.174;2023-03-02T04:20:40;8.90;42.60
3504;DHT22;1766;53.490;10.174;2023-03-02T04:22:43;8.90;43.30
3504;DHT22;1766;53.490;10.174;2023-03-02T04:24:45;8.80;42.70
3504;DHT22;1766;53.490;10.174;2023-03-02T04:26:48;8.80;42.60
3504;DHT22;1766;53.490;10.174;2023-03-02T04:28:50;8.80;42.70
3504;DHT22;1766;53.490;10.174;2023-03-02T04:30:52;8.80;42.60
3504;DHT22;1766;53.490;10.174;2023-03-02T04:32:54;8.80;42.60
3504;DHT22;1766;53.490;10.174;2023-03-02T04:34:57;8.70;42.70
3504;DHT22;1766;53.490;10.174;2023-03-02T04:37:00;8.70;42.60
3504;DHT22;1766;53.490;10.174;2023-03-02T04:39:04;8.80;42.80
3504;DHT22;1766;53.490;10.174;2023-03-02T04:41:06;8.70;42.70
3504;DHT22;1766;53.490;10.174;2023-03-02T04:43:08;8.80;42.80
3504;DHT22;1766;53.490;10.174;2023-03-02T04:45:11;8.80;42.80
3504;DHT22;1766;53.490;10.174;2023-03-02T04:47:14;8.70;42.80
3504;DHT22;1766;53.490;10.174;2023-03-02T04:49:17;8.70;42.80
3504;DHT22;1766;53.490;10.174;2023-03-02T04:51:22;8.70;43.30
3504;DHT22;1766;53.490;10.174;2023-03-02T04:53:26;8.70;42.80
3504;DHT22;1766;53.490;10.174;2023-03-02T04:55:28;8.70;42.70
3504;DHT22;1766;53.490;10.174;2023-03-02T04:57:40;8.80;42.90
3504;DHT22;1766;53.490;10.174;2023-03-02T04:59:42;8.80;42.80
3504;DHT22;1766;53.490;10.174;2023-03-02T05:01:44;8.80;42.80
3504;DHT22;1766;53.490;10.174;2023-03-02T05:03:46;8.80;42.80
3504;DHT22;1766;53.490;10.174;2023-03-02T05:05:48;8.70;42.70
3504;DHT22;1766;53.490;10.174;2023-03-02T05:07:51;8.80;42.70
3504;DHT22;1766;53.490;10.174;2023-03-02T05:09:54;8.70;42.80
3504;DHT22;1766;53.490;10.174;2023-03-02T05:11:58;8.70;42.70
3504;DHT22;1766;53.490;10.174;2023-03-02T05:14:02;8.80;42.80
3504;DHT22;1766;53.490;10.174;2023-03-02T05:16:06;8.70;42.70
3504;DHT22;1766;53.490;10.174;2023-03-02T05:18:09;8.70;42.60
3504;DHT22;1766;53.490;10.174;2023-03-02T05:20:12;8.70;42.70
3504;DHT22;1766;53.490;10.174;2023-03-02T05:22:14;8.70;42.80
3504;DHT22;1766;53.490;10.174;2023-03-02T05:24:16;8.70;42.70
3504;DHT22;1766;53.490;10.174;2023-03-02T05:26:19;8.70;42.80
3504;DHT22;1766;53.490;10.174;2023-03-02T05:28:22;8.70;42.80
3504;DHT22;1766;53.490;10.174;2023-03-02T05:30:25;8.70;42.80
3504;DHT22;1766;53.490;10.174;2023-03-02T05:32:27;8.70;42.70
3504;DHT22;1766;53.490;10.174;2023-03-02T05:34:29;8.70;42.80
3504;DHT22;1766;53.490;10.174;2023-03-02T05:36:30;8.70;42.70
3504;DHT22;1766;53.490;10.174;2023-03-02T05:38:32;8.70;42.80
3504;DHT22;1766;53.490;10.174;2023-03-02T05:40:34;8.70;42.80
3504;DHT22;1766;53.490;10.174;2023-03-02T05:42:38;8.70;42.80
3504;DHT22;1766;53.490;10.174;2023-03-02T05:44:39;8.80;43.00
3504;DHT22;1766;53.490;10.174;2023-03-02T05:46:41;8.70;42.80
3504;DHT22;1766;53.490;10.174;2023-03-02T05:48:43;8.70;42.70
3504;DHT22;1766;53.490;10.174;2023-03-02T05:50:46;8.70;42.80
3504;DHT22;1766;53.490;10.174;2023-03-02T05:52:47;8.70;42.70
3504;DHT22;1766;53.490;10.174;2023-03-02T05:54:49;8.80;42.90
3504;DHT22;1766;53.490;10.174;2023-03-02T05:56:58;8.70;42.80
3504;DHT22;1766;53.490;10.174;2023-03-02T05:59:01;8.80;42.90
3504;DHT22;1766;53.490;10.174;2023-03-02T06:01:07;8.70;42.80
3504;DHT22;1766;53.490;10.174;2023-03-02T06:03:10;8.70;42.90
3504;DHT22;1766;53.490;10.174;2023-03-02T06:05:14;8.70;42.80
3504;DHT22;1766;53.490;10.174;2023-03-02T06:07:18;8.70;43.00
3504;DHT22;1766;53.490;10.174;2023-03-02T06:09:19;8.70;42.80
3504;DHT22;1766;53.490;10.174;2023-03-02T06:11:22;8.70;42.90
3504;DHT22;1766;53.490;10.174;2023-03-02T06:13:23;8.80;43.00
3504;DHT22;1766;53.490;10.174;2023-03-02T06:15:27;8.80;43.00
3504;DHT22;1766;53.490;10.174;2023-03-02T06:17:29;8.80;43.00
3504;DHT22;1766;53.490;10.174;2023-03-02T06:19:31;8.90;43.00
3504;DHT22;1766;53.490;10.174;2023-03-02T06:21:33;8.80;43.00
3504;DHT22;1766;53.490;10.174;2023-03-02T06:23:34;8.80;43.00
3504;DHT22;1766;53.490;10.174;2023-03-02T06:25:37;8.80;42.90
3504;DHT22;1766;53.490;10.174;2023-03-02T06:27:41;8.80;43.00
3504;DHT22;1766;53.490;10.174;2023-03-02T06:29:43;8.80;43.10
3504;DHT22;1766;53.490;10.174;2023-03-02T06:31:47;8.80;43.00
3504;DHT22;1766;53.490;10.174;2023-03-02T06:33:48;8.80;43.00
3504;DHT22;1766;53.490;10.174;2023-03-02T06:35:50;8.80;43.00
3504;DHT22;1766;53.490;10.174;2023-03-02T06:37:52;8.70;43.00
3504;DHT22;1766;53.490;10.174;2023-03-02T06:39:54;8.70;43.00
3504;DHT22;1766;53.490;10.174;2023-03-02T06:41:56;8.70;43.00
3504;DHT22;1766;53.490;10.174;2023-03-02T06:43:58;8.70;43.10
3504;DHT22;1766;53.490;10.174;2023-03-02T06:46:00;8.70;43.00
3504;DHT22;1766;53.490;10.174;2023-03-02T06:48:06;8.70;43.20
3504;DHT22;1766;53.490;10.174;2023-03-02T06:50:09;8.70;42.90
3504;DHT22;1766;53.490;10.174;2023-03-02T06:52:12;8.70;43.20
3504;DHT22;1766;53.490;10.174;2023-03-02T06:54:13;8.70;43.10
3504;DHT22;1766;53.490;10.174;2023-03-02T06:56:15;8.80;43.10
3504;DHT22;1766;53.490;10.174;2023-03-02T06:58:17;8.80;43.20
3504;DHT22;1766;53.490;10.174;2023-03-02T07:00:20;8.80;43.00
3504;DHT22;1766;53.490;10.174;2023-03-02T07:02:27;8.80;43.20
3504;DHT22;1766;53.490;10.174;2023-03-02T07:04:30;8.80;43.10
3504;DHT22;1766;53.490;10.174;2023-03-02T07:06:32;8.80;43.10
3504;DHT22;1766;53.490;10.174;2023-03-02T07:08:35;8.80;43.20
3504;DHT22;1766;53.490;10.174;2023-03-02T07:10:37;8.80;43.30
3504;DHT22;1766;53.490;10.174;2023-03-02T07:12:39;8.80;43.20
3504;DHT22;1766;53.490;10.174;2023-03-02T07:14:40;8.90;43.40
3504;DHT22;1766;53.490;10.174;2023-03-02T07:16:42;8.90;43.30
3504;DHT22;1766;53.490;10.174;2023-03-02T07:18:44;8.90;43.40
3504;DHT22;1766;53.490;10.174;2023-03-02T07:20:47;8.90;43.40
3504;DHT22;1766;53.490;10.174;2023-03-02T07:22:49;8.90;43.40
3504;DHT22;1766;53.490;10.174;2023-03-02T07:24:51;9.00;43.40
3504;DHT22;1766;53.490;10.174;2023-03-02T07:26:53;9.00;43.50
3504;DHT22;1766;53.490;10.174;2023-03-02T07:28:54;9.00;43.60
3504;DHT22;1766;53.490;10.174;2023-03-02T07:30:58;9.00;43.50
3504;DHT22;1766;53.490;10.174;2023-03-02T07:33:00;9.10;43.40
3504;DHT22;1766;53.490;10.174;2023-03-02T07:35:04;9.10;43.50
3504;DHT22;1766;53.490;10.174;2023-03-02T07:37:08;9.00;43.50
3504;DHT22;1766;53.490;10.174;2023-03-02T07:39:10;9.00;43.60
3504;DHT22;1766;53.490;10.174;2023-03-02T07:41:12;9.20;43.90
3504;DHT22;1766;53.490;10.174;2023-03-02T07:43:16;9.10;43.70
3504;DHT22;1766;53.490;10.174;2023-03-02T07:45:17;9.10;43.80
3504;DHT22;1766;53.490;10.174;2023-03-02T07:47:24;9.20;43.90
3504;DHT22;1766;53.490;10.174;2023-03-02T07:49:26;9.20;43.70
3504;DHT22;1766;53.490;10.174;2023-03-02T07:51:27;9.30;43.90
3504;DHT22;1766;53.490;10.174;2023-03-02T07:53:31;9.30;43.90
3504;DHT22;1766;53.490;10.174;2023-03-02T07:55:33;9.30;43.90
3504;DHT22;1766;53.490;10.174;2023-03-02T07:57:35;9.40;43.80
3504;DHT22;1766;53.490;10.174;2023-03-02T07:59:37;9.40;43.80
3504;DHT22;1766;53.490;10.174;2023-03-02T08:01:39;9.50;43.80
3504;DHT22;1766;53.490;10.174;2023-03-02T08:03:40;9.40;43.90
3504;DHT22;1766;53.490;10.174;2023-03-02T08:05:42;9.40;43.90
3504;DHT22;1766;53.490;10.174;2023-03-02T08:07:45;9.50;44.00
3504;DHT22;1766;53.490;10.174;2023-03-02T08:09:49;9.50;43.90
3504;DHT22;1766;53.490;10.174;2023-03-02T08:11:50;9.60;44.10
3504;DHT22;1766;53.490;10.174;2023-03-02T08:13:52;9.60;44.10
3504;DHT22;1766;53.490;10.174;2023-03-02T08:15:58;9.60;44.10
3504;DHT22;1766;53.490;10.174;2023-03-02T08:18:01;9.60;44.10
3504;DHT22;1766;53.490;10.174;2023-03-02T08:20:03;9.70;44.10
3504;DHT22;1766;53.490;10.174;2023-03-02T08:22:06;9.60;44.10
3504;DHT22;1766;53.490;10.174;2023-03-02T08:24:09;9.70;44.00
3504;DHT22;1766;53.490;10.174;2023-03-02T08:26:13;9.70;44.30
3504;DHT22;1766;53.490;10.174;2023-03-02T08:28:15;9.70;44.20
3504;DHT22;1766;53.490;10.174;2023-03-02T08:30:17;9.80;44.00
3504;DHT22;1766;53.490;10.174;2023-03-02T08:32:19;9.70;44.00
3504;DHT22;1766;53.490;10.174;2023-03-02T08:34:21;9.70;44.00
3504;DHT22;1766;53.490;10.174;2023-03-02T08:36:22;9.80;43.90
3504;DHT22;1766;53.490;10.174;2023-03-02T08:38:25;9.70;43.90
3504;DHT22;1766;53.490;10.174;2023-03-02T08:40:27;9.70;44.10
3504;DHT22;1766;53.490;10.174;2023-03-02T08:42:30;9.80;44.10
3504;DHT22;1766;53.490;10.174;2023-03-02T08:44:31;9.80;44.10
3504;DHT22;1766;53.490;10.174;2023-03-02T08:46:33;9.80;44.10
3504;DHT22;1766;53.490;10.174;2023-03-02T08:48:35;9.80;44.20
3504;DHT22;1766;53.490;10.174;2023-03-02T08:50:37;9.90;44.20
3504;DHT22;1766;53.490;10.174;2023-03-02T08:52:39;9.90;44.20
3504;DHT22;1766;53.490;10.174;2023-03-02T08:54:40;10.00;43.30
3504;DHT22;1766;53.490;10.174;2023-03-02T08:56:42;10.00;43.20
3504;DHT22;1766;53.490;10.174;2023-03-02T08:58:46;10.00;43.20
3504;DHT22;1766;53.490;10.174;2023-03-02T09:00:48;10.00;43.20
3504;DHT22;1766;53.490;10.174;2023-03-02T09:02:49;10.00;43.30
3504;DHT22;1766;53.490;10.174;2023-03-02T09:04:51;10.00;43.30
3504;DHT22;1766;53.490;10.174;2023-03-02T09:06:53;10.00;43.30
3504;DHT22;1766;53.490;10.174;2023-03-02T09:08:56;10.10;43.30
3504;DHT22;1766;53.490;10.174;2023-03-02T09:10:57;10.20;43.40
3504;DHT22;1766;53.490;10.174;2023-03-02T09:13:00;10.10;43.30
3504;DHT22;1766;53.490;10.174;2023-03-02T09:15:03;10.10;43.40
3504;DHT22;1766;53.490;10.174;2023-03-02T09:17:05;10.20;43.40
3504;DHT22;1766;53.490;10.174;2023-03-02T09:19:08;10.20;43.30
3504;DHT22;1766;53.490;10.174;2023-03-02T09:21:10;10.20;43.30
3504;DHT22;1766;53.490;10.174;2023-03-02T09:23:12;10.30;43.40
3504;DHT22;1766;53.490;10.174;2023-03-02T09:25:14;10.30;43.30
3504;DHT22;1766;53.490;10.174;2023-03-02T09:27:30;10.40;43.40
3504;DHT22;1766;53.490;10.174;2023-03-02T09:29:32;10.50;43.30
3504;DHT22;1766;53.490;10.174;2023-03-02T09:31:36;10.50;43.20
3504;DHT22;1766;53.490;10.174;2023-03-02T09:33:38;10.50;43.30
3504;DHT22;1766;53.490;10.174;2023-03-02T09:35:40;10.60;43.40
3504;DHT22;1766;53.490;10.174;2023-03-02T09:37:42;10.60;43.20
3504;DHT22;1766;53.490;10.174;2023-03-02T09:39:44;10.70;43.20
3504;DHT22;1766;53.490;10.174;2023-03-02T09:42:02;10.70;43.20
3504;DHT22;1766;53.490;10.174;2023-03-02T09:44:25;10.60;43.20
3504;DHT22;1766;53.490;10.174;2023-03-02T09:46:40;10.70;43.70
3504;DHT22;1766;53.490;10.174;2023-03-02T09:48:52;10.70;43.10
3504;DHT22;1766;53.490;10.174;2023-03-02T09:51:06;10.80;43.20
3504;DHT22;1766;53.490;10.174;2023-03-02T09:53:25;10.90;43.30
3504;DHT22;1766;53.490;10.174;2023-03-02T09:55:34;10.90;43.30
3504;DHT22;1766;53.490;10.174;2023-03-02T09:57:37;10.90;43.20
3504;DHT22;1766;53.490;10.174;2023-03-02T09:59:42;11.00;43.20
3504;DHT22;1766;53.490;10.174;2023-03-02T10:01:52;11.00;43.00
3504;DHT22;1766;53.490;10.174;2023-03-02T10:04:00;10.90;42.90
3504;DHT22;1766;53.490;10.174;2023-03-02T10:06:09;11.00;43.10
3504;DHT22;1766;53.490;10.174;2023-03-02T10:08:12;11.00;43.10
3504;DHT22;1766;53.490;10.174;2023-03-02T10:10:26;11.00;42.90
3504;DHT22;1766;53.490;10.174;2023-03-02T10:12:43;10.90;42.90
3504;DHT22;1766;53.490;10.174;2023-03-02T10:14:55;10.90;42.60
3504;DHT22;1766;53.490;10.174;2023-03-02T10:17:18;10.90;42.70
3504;DHT22;1766;53.490;10.174;2023-03-02T10:19:35;10.80;42.80
3504;DHT22;1766;53.490;10.174;2023-03-02T10:21:43;10.90;42.80
3504;DHT22;1766;53.490;10.174;2023-03-02T10:23:51;11.00;42.80
3504;DHT22;1766;53.490;10.174;2023-03-02T10:26:02;10.90;42.60
3504;DHT22;1766;53.490;10.174;2023-03-02T10:28:14;11.00;42.80
3504;DHT22;1766;53.490;10.174;2023-03-02T10:30:22;10.90;42.70
3504;DHT22;1766;53.490;10.174;2023-03-02T10:32:31;11.00;42.60
3504;DHT22;1766;53.490;10.174;2023-03-02T10:34:35;11.00;42.70
3504;DHT22;1766;53.490;10.174;2023-03-02T10:36:40;11.00;42.70
3504;DHT22;1766;53.490;10.174;2023-03-02T10:38:47;11.10;42.70
3504;DHT22;1766;53.490;10.174;2023-03-02T10:40:50;11.10;42.50
3504;DHT22;1766;53.490;10.174;2023-03-02T10:42:56;11.20;42.70
3504;DHT22;1766;53.490;10.174;2023-03-02T10:45:08;11.30;42.70
3504;DHT22;1766;53.490;10.174;2023-03-02T10:47:28;11.30;42.60
3504;DHT22;1766;53.490;10.174;2023-03-02T10:49:32;11.40;42.40
3504;DHT22;1766;53.490;10.174;2023-03-02T10:51:34;11.40;42.30
3504;DHT22;1766;53.490;10.174;2023-03-02T10:53:36;11.40;42.10
3504;DHT22;1766;53.490;10.174;2023-03-02T10:55:44;11.30;42.00
3504;DHT22;1766;53.490;10.174;2023-03-02T10:57:59;11.20;42.20
3504;DHT22;1766;53.490;10.174;2023-03-02T11:00:12;11.20;42.20
3504;DHT22;1766;53.490;10.174;2023-03-02T11:02:18;11.20;42.20
3504;DHT22;1766;53.490;10.174;2023-03-02T11:04:23;11.20;42.20
3504;DHT22;1766;53.490;10.174;2023-03-02T11:06:28;11.20;42.00
3504;DHT22;1766;53.490;10.174;2023-03-02T11:08:30;11.10;41.90
3504;DHT22;1766;53.490;10.174;2023-03-02T11:10:34;11.10;42.00
3504;DHT22;1766;53.490;10.174;2023-03-02T11:12:43;11.00;42.10
3504;DHT22;1766;53.490;10.174;2023-03-02T11:14:46;11.00;42.00
3504;DHT22;1766;53.490;10.174;2023-03-02T11:16:50;11.00;42.00
3504;DHT22;1766;53.490;10.174;2023-03-02T11:18:55;11.00;42.10
3504;DHT22;1766;53.490;10.174;2023-03-02T11:21:02;11.00;42.10
3504;DHT22;1766;53.490;10.174;2023-03-02T11:23:17;11.00;42.00
3504;DHT22;1766;53.490;10.174;2023-03-02T11:25:25;11.00;42.00
3504;DHT22;1766;53.490;10.174;2023-03-02T11:27:38;11.20;42.10
3504;DHT22;1766;53.490;10.174;2023-03-02T11:29:45;11.20;42.20
3504;DHT22;1766;53.490;10.174;2023-03-02T11:31:51;11.20;42.10
3504;DHT22;1766;53.490;10.174;2023-03-02T11:34:21;11.30;42.00
3504;DHT22;1766;53.490;10.174;2023-03-02T11:36:35;11.30;42.00
3504;DHT22;1766;53.490;10.174;2023-03-02T11:38:47;11.40;42.00
3504;DHT22;1766;53.490;10.174;2023-03-02T11:40:55;11.40;42.00
3504;DHT22;1766;53.490;10.174;2023-03-02T11:42:59;11.40;42.00
3504;DHT22;1766;53.490;10.174;2023-03-02T11:45:04;11.40;42.00
3504;DHT22;1766;53.490;10.174;2023-03-02T11:47:17;11.40;42.00
3504;DHT22;1766;53.490;10.174;2023-03-02T11:49:22;11.50;41.90
3504;DHT22;1766;53.490;10.174;2023-03-02T11:51:33;11.60;42.00
3504;DHT22;1766;53.490;10.174;2023-03-02T11:53:40;11.50;41.50
3504;DHT22;1766;53.490;10.174;2023-03-02T11:55:45;11.60;41.60
3504;DHT22;1766;53.490;10.174;2023-03-02T11:57:51;11.50;41.60
3504;DHT22;1766;53.490;10.174;2023-03-02T11:59:55;11.70;41.80
3504;DHT22;1766;53.490;10.174;2023-03-02T12:01:58;11.60;41.70
3504;DHT22;1766;53.490;10.174;2023-03-02T12:04:10;11.60;41.60
3504;DHT22;1766;53.490;10.174;2023-03-02T12:06:36;11.60;41.70
3504;DHT22;1766;53.490;10.174;2023-03-02T12:08:40;11.60;41.60
3504;DHT22;1766;53.490;10.174;2023-03-02T12:10:56;11.70;41.60
3504;DHT22;1766;53.490;10.174;2023-03-02T12:13:12;11.60;41.60
3504;DHT22;1766;53.490;10.174;2023-03-02T12:15:33;11.70;41.50
3504;DHT22;1766;53.490;10.174;2023-03-02T12:17:36;11.60;41.30
3504;DHT22;1766;53.490;10.174;2023-03-02T12:19:40;11.70;41.30
3504;DHT22;1766;53.490;10.174;2023-03-02T12:21:56;11.60;41.30
3504;DHT22;1766;53.490;10.174;2023-03-02T12:24:00;11.60;41.40
3504;DHT22;1766;53.490;10.174;2023-03-02T12:26:07;11.60;41.30
3504;DHT22;1766;53.490;10.174;2023-03-02T12:28:29;11.60;41.30
3504;DHT22;1766;53.490;10.174;2023-03-02T12:30:32;11.50;41.30
3504;DHT22;1766;53.490;10.174;2023-03-02T12:32:34;11.60;41.30
3504;DHT22;1766;53.490;10.174;2023-03-02T12:34:38;11.60;41.40
3504;DHT22;1766;53.490;10.174;2023-03-02T12:36:43;11.60;41.40
3504;DHT22;1766;53.490;10.174;2023-03-02T12:38:56;11.60;41.30
3504;DHT22;1766;53.490;10.174;2023-03-02T12:43:35;11.60;41.20
3504;DHT22;1766;53.490;10.174;2023-03-02T12:45:45;11.60;41.20
3504;DHT22;1766;53.490;10.174;2023-03-02T12:48:00;11.60;41.20
3504;DHT22;1766;53.490;10.174;2023-03-02T12:50:05;11.70;41.30
3504;DHT22;1766;53.490;10.174;2023-03-02T12:52:19;11.70;41.30
3504;DHT22;1766;53.490;10.174;2023-03-02T12:54:26;11.70;41.30
3504;DHT22;1766;53.490;10.174;2023-03-02T12:56:29;11.70;41.20
3504;DHT22;1766;53.490;10.174;2023-03-02T12:58:31;11.80;41.10
3504;DHT22;1766;53.490;10.174;2023-03-02T13:00:33;11.80;41.20
3504;DHT22;1766;53.490;10.174;2023-03-02T13:02:36;11.80;41.10
3504;DHT22;1766;53.490;10.174;2023-03-02T13:04:52;11.80;41.30
3504;DHT22;1766;53.490;10.174;2023-03-02T13:06:55;11.80;41.30
3504;DHT22;1766;53.490;10.174;2023-03-02T13:08:58;11.90;41.20
3504;DHT22;1766;53.490;10.174;2023-03-02T13:11:02;11.90;41.20
3504;DHT22;1766;53.490;10.174;2023-03-02T13:13:14;11.90;41.20
3504;DHT22;1766;53.490;10.174;2023-03-02T13:15:17;11.90;41.20
3504;DHT22;1766;53.490;10.174;2023-03-02T13:17:22;11.90;41.00
3504;DHT22;1766;53.490;10.174;2023-03-02T13:19:26;12.00;41.10
3504;DHT22;1766;53.490;10.174;2023-03-02T13:21:32;12.00;41.00
3504;DHT22;1766;53.490;10.174;2023-03-02T13:23:44;12.10;41.10
3504;DHT22;1766;53.490;10.174;2023-03-02T13:25:48;12.00;41.00
3504;DHT22;1766;53.490;10.174;2023-03-02T13:27:54;12.00;41.00
3504;DHT22;1766;53.490;10.174;2023-03-02T13:30:07;12.00;41.00
3504;DHT22;1766;53.490;10.174;2023-03-02T13:32:20;12.00;41.00